createdAt,value
2023-05-15T00:01:24.667Z,8.13
2023-05-15T00:03:52.801Z,8.20
2023-05-15T00:06:19.927Z,8.27
2023-05-15T00:08:46.405Z,8.20
2023-05-15T00:11:13.337Z,8.60
2023-05-15T00:13:39.818Z,8.40
2023-05-15T00:16:07.883Z,8.57
2023-05-15T00:18:34.951Z,7.53
2023-05-15T00:21:01.418Z,7.60
2023-05-15T00:23:28.004Z,9.60
2023-05-15T00:25:54.916Z,8.07
2023-05-15T00:28:21.511Z,8.37
2023-05-15T00:30:48.043Z,7.97
2023-05-15T00:33:14.965Z,8.00
2023-05-15T00:35:41.421Z,8.27
2023-05-15T00:38:07.902Z,9.93
2023-05-15T00:40:36.113Z,8.33
2023-05-15T00:43:02.951Z,8.87
2023-05-15T00:45:30.388Z,8.37
2023-05-15T00:47:58.677Z,8.40
2023-05-15T00:50:25.607Z,9.40
2023-05-15T00:52:52.712Z,10.10
2023-05-15T00:55:19.502Z,9.90
2023-05-15T00:57:47.882Z,9.03
2023-05-15T01:00:16.934Z,8.53
2023-05-15T01:02:44.366Z,8.90
2023-05-15T01:05:11.978Z,8.13
2023-05-15T01:07:45.994Z,9.40
2023-05-15T01:10:13.146Z,10.23
2023-05-15T01:12:40.518Z,8.27
2023-05-15T01:15:07.401Z,9.27
2023-05-15T01:17:33.987Z,9.30
2023-05-15T01:20:02.858Z,9.07
2023-05-15T01:22:40.723Z,9.63
2023-05-15T01:25:22.722Z,9.87
2023-05-15T01:27:51.735Z,9.03
2023-05-15T01:30:22.509Z,9.17
2023-05-15T01:33:17.284Z,8.67
2023-05-15T01:35:48.345Z,8.70
2023-05-15T01:38:21.277Z,8.30
2023-05-15T01:40:57.736Z,10.23
2023-05-15T01:43:28.531Z,9.60
2023-05-15T01:45:56.173Z,9.73
2023-05-15T01:48:22.960Z,11.53
2023-05-15T01:50:51.514Z,11.00
2023-05-15T01:53:18.881Z,10.93
2023-05-15T01:55:46.731Z,11.77
2023-05-15T01:58:14.134Z,13.97
2023-05-15T02:00:41.425Z,10.10
2023-05-15T02:03:08.836Z,10.63
2023-05-15T02:05:35.760Z,10.20
2023-05-15T02:08:05.558Z,9.87
2023-05-15T02:10:33.803Z,9.50
2023-05-15T02:13:00.886Z,9.03
2023-05-15T02:15:29.208Z,9.37
2023-05-15T02:17:56.738Z,10.30
2023-05-15T02:20:24.279Z,8.57
2023-05-15T02:22:50.770Z,10.20
2023-05-15T02:25:18.009Z,9.83
2023-05-15T02:27:56.235Z,9.77
2023-05-15T02:30:32.885Z,10.30
2023-05-15T02:33:08.229Z,9.60
2023-05-15T02:35:53.271Z,9.33
2023-05-15T02:38:24.139Z,10.07
2023-05-15T02:40:51.454Z,10.90
2023-05-15T02:43:18.793Z,10.90
2023-05-15T02:45:47.870Z,9.60
2023-05-15T02:48:15.913Z,9.87
2023-05-15T02:50:43.151Z,9.10
2023-05-15T02:53:10.281Z,9.33
2023-05-15T02:55:38.266Z,9.73
2023-05-15T02:58:05.485Z,11.47
2023-05-15T03:00:32.112Z,10.83
2023-05-15T03:02:59.167Z,9.27
2023-05-15T03:05:27.095Z,9.87
2023-05-15T03:07:53.863Z,10.33
2023-05-15T03:10:23.764Z,10.47
2023-05-15T03:12:50.409Z,10.00
2023-05-15T03:15:17.173Z,9.70
2023-05-15T03:17:44.739Z,11.10
2023-05-15T03:20:11.317Z,9.53
2023-05-15T03:22:38.016Z,10.13
2023-05-15T03:25:04.974Z,10.13
2023-05-15T03:27:31.522Z,9.87
2023-05-15T03:29:58.378Z,9.73
2023-05-15T03:32:25.021Z,8.90
2023-05-15T03:34:51.751Z,9.57
2023-05-15T03:37:18.620Z,10.77
2023-05-15T03:39:45.201Z,9.87
2023-05-15T03:42:11.794Z,10.30
2023-05-15T03:44:38.693Z,10.80
2023-05-15T03:47:05.737Z,9.93
2023-05-15T03:49:32.287Z,10.70
2023-05-15T03:51:58.995Z,11.60
2023-05-15T03:54:25.676Z,11.73
2023-05-15T03:56:52.530Z,11.23
2023-05-15T03:59:19.519Z,12.50
2023-05-15T04:02:03.024Z,10.10
2023-05-15T04:04:31.192Z,10.83
2023-05-15T04:06:57.929Z,11.23
2023-05-15T04:09:24.393Z,11.43
2023-05-15T04:11:50.953Z,11.23
2023-05-15T04:14:17.428Z,10.07
2023-05-15T04:16:44.158Z,11.47
2023-05-15T04:19:11.083Z,12.70
2023-05-15T04:21:37.574Z,13.20
2023-05-15T04:24:04.778Z,12.53
2023-05-15T04:26:31.548Z,12.03
2023-05-15T04:29:03.891Z,12.53
2023-05-15T04:31:31.906Z,12.43
2023-05-15T04:33:58.824Z,12.93
2023-05-15T04:36:25.459Z,14.53
2023-05-15T04:38:52.495Z,15.30
2023-05-15T04:41:19.045Z,14.80
2023-05-15T04:43:45.974Z,17.57
2023-05-15T04:46:12.630Z,21.83
2023-05-15T04:48:39.641Z,42.30
2023-05-15T04:51:07.536Z,49.47
2023-05-15T04:53:34.285Z,45.40
2023-05-15T04:56:01.295Z,52.33
2023-05-15T04:58:28.013Z,59.90
2023-05-15T05:00:54.586Z,62.90
2023-05-15T05:03:21.775Z,85.20
2023-05-15T05:05:49.072Z,59.00
2023-05-15T05:08:15.762Z,76.80
2023-05-15T05:10:42.849Z,68.40
2023-05-15T05:13:09.347Z,97.80
2023-05-15T05:15:37.092Z,83.57
2023-05-15T05:18:03.896Z,68.70
2023-05-15T05:20:30.481Z,69.33
2023-05-15T05:22:57.832Z,60.50
2023-05-15T05:25:24.720Z,65.63
2023-05-15T05:27:51.561Z,64.90
2023-05-15T05:30:18.496Z,58.93
2023-05-15T05:32:45.203Z,56.33
2023-05-15T05:35:11.856Z,57.87
2023-05-15T05:37:40.826Z,53.60
2023-05-15T05:40:08.794Z,56.20
2023-05-15T05:42:35.565Z,57.43
2023-05-15T05:45:02.497Z,60.40
2023-05-15T05:47:29.338Z,56.93
2023-05-15T05:49:55.966Z,72.77
2023-05-15T05:52:23.125Z,67.57
2023-05-15T05:54:50.038Z,85.63
2023-05-15T05:57:16.749Z,85.70
2023-05-15T05:59:43.956Z,103.67
2023-05-15T06:02:11.429Z,86.80
2023-05-15T06:04:38.094Z,88.63
2023-05-15T06:07:05.053Z,80.73
2023-05-15T06:09:31.960Z,92.23
2023-05-15T06:11:58.523Z,92.47
2023-05-15T06:14:25.382Z,97.37
2023-05-15T06:16:52.616Z,100.50
2023-05-15T06:19:19.446Z,95.13
2023-05-15T06:21:46.262Z,94.60
2023-05-15T06:24:12.819Z,98.60
2023-05-15T06:26:39.430Z,88.33
2023-05-15T06:29:06.615Z,88.20
2023-05-15T06:31:33.199Z,86.87
2023-05-15T06:33:59.914Z,85.23
2023-05-15T06:36:27.161Z,85.93
2023-05-15T06:38:53.653Z,82.00
2023-05-15T06:41:21.464Z,73.90
2023-05-15T06:43:47.944Z,76.53
2023-05-15T06:46:16.996Z,89.23
2023-05-15T06:48:43.450Z,89.80
2023-05-15T06:51:10.127Z,86.67
2023-05-15T06:53:36.750Z,101.63
2023-05-15T06:56:03.460Z,97.30
2023-05-15T06:58:30.626Z,89.80
2023-05-15T07:00:59.325Z,91.60
2023-05-15T07:03:26.091Z,82.50
2023-05-15T07:05:53.569Z,81.70
2023-05-15T07:08:20.104Z,75.50
2023-05-15T07:10:48.484Z,84.53
2023-05-15T07:13:18.317Z,90.53
2023-05-15T07:15:45.288Z,78.17
2023-05-15T07:18:12.840Z,76.83
2023-05-15T07:20:39.631Z,81.97
2023-05-15T07:23:06.786Z,84.97
2023-05-15T07:25:33.497Z,87.03
2023-05-15T07:28:00.138Z,87.73
2023-05-15T07:30:27.344Z,96.67
2023-05-15T07:32:54.034Z,83.97
2023-05-15T07:35:21.141Z,86.23
2023-05-15T07:37:47.681Z,87.00
2023-05-15T07:40:15.430Z,92.63
2023-05-15T07:42:43.948Z,74.37
2023-05-15T07:45:10.590Z,76.73
2023-05-15T07:47:37.258Z,75.60
2023-05-15T07:50:04.509Z,86.80
2023-05-15T07:52:31.419Z,81.73
2023-05-15T07:54:59.150Z,73.10
2023-05-15T07:57:26.498Z,79.87
2023-05-15T07:59:53.289Z,77.47
2023-05-15T08:02:19.961Z,73.20
2023-05-15T08:04:46.826Z,75.83
2023-05-15T08:07:14.427Z,77.57
2023-05-15T08:09:41.374Z,78.50
2023-05-15T08:12:22.875Z,80.50
2023-05-15T08:14:53.127Z,82.10
2023-05-15T08:17:21.110Z,78.57
2023-05-15T08:19:48.140Z,90.53
2023-05-15T08:22:14.872Z,76.70
2023-05-15T08:24:41.836Z,81.60
2023-05-15T08:27:09.085Z,75.93
2023-05-15T08:29:38.581Z,78.30
2023-05-15T08:32:07.113Z,69.37
2023-05-15T08:34:33.667Z,71.13
2023-05-15T08:37:00.273Z,70.03
2023-05-15T08:39:27.225Z,62.67
2023-05-15T08:42:01.051Z,64.83
2023-05-15T08:44:28.103Z,61.63
2023-05-15T08:46:54.707Z,64.60
2023-05-15T08:49:32.458Z,59.93
2023-05-15T08:51:59.567Z,70.60
2023-05-15T08:54:26.225Z,65.43
2023-05-15T08:56:53.484Z,63.03
2023-05-15T08:59:20.827Z,66.10
2023-05-15T09:01:47.363Z,62.63
2023-05-15T09:04:14.291Z,66.00
2023-05-15T09:06:41.772Z,76.13
2023-05-15T09:09:09.396Z,64.40
2023-05-15T09:11:36.857Z,69.93
2023-05-15T09:14:04.684Z,62.23
2023-05-15T09:16:31.326Z,63.93
2023-05-15T09:18:59.047Z,62.73
2023-05-15T09:21:27.389Z,61.73
2023-05-15T09:23:55.545Z,61.03
2023-05-15T09:26:22.307Z,53.20
2023-05-15T09:28:49.465Z,51.13
2023-05-15T09:31:19.448Z,51.07
2023-05-15T09:33:46.485Z,42.57
2023-05-15T09:36:21.649Z,43.47
2023-05-15T09:38:49.748Z,46.03
2023-05-15T09:41:24.924Z,47.23
2023-05-15T09:43:51.535Z,45.57
2023-05-15T09:46:18.128Z,44.63
2023-05-15T09:48:44.792Z,42.17
2023-05-15T09:51:18.424Z,45.80
2023-05-15T09:53:55.330Z,46.47
2023-05-15T09:56:22.537Z,45.10
2023-05-15T09:58:57.716Z,40.17
2023-05-15T10:01:25.229Z,38.00
2023-05-15T10:04:03.172Z,35.07
2023-05-15T10:06:42.805Z,35.10
2023-05-15T10:09:11.063Z,31.00
2023-05-15T10:11:39.814Z,33.43
2023-05-15T10:14:07.703Z,32.07
2023-05-15T10:16:36.109Z,36.50
2023-05-15T10:19:07.824Z,32.97
2023-05-15T10:21:37.356Z,32.73
2023-05-15T10:24:05.225Z,31.87
2023-05-15T10:26:42.590Z,31.80
2023-05-15T10:29:13.716Z,30.07
2023-05-15T10:31:41.660Z,31.30
2023-05-15T10:34:09.303Z,31.60
2023-05-15T10:36:38.088Z,31.47
2023-05-15T10:39:06.713Z,29.37
2023-05-15T10:41:36.525Z,29.67
2023-05-15T10:44:03.478Z,28.73
2023-05-15T10:46:32.066Z,24.70
2023-05-15T10:49:00.597Z,24.67
2023-05-15T10:51:28.866Z,24.33
2023-05-15T10:54:00.782Z,23.30
2023-05-15T10:56:32.639Z,23.80
2023-05-15T10:59:09.082Z,22.73
2023-05-15T11:01:38.072Z,22.80
2023-05-15T11:04:17.924Z,22.70
2023-05-15T11:06:46.545Z,18.23
2023-05-15T11:09:22.758Z,22.50
2023-05-15T11:11:52.921Z,22.03
2023-05-15T11:14:20.044Z,23.23
2023-05-15T11:16:53.355Z,22.50
2023-05-15T11:19:23.867Z,22.43
2023-05-15T11:22:00.344Z,22.37
2023-05-15T11:24:29.308Z,23.37
2023-05-15T11:27:00.871Z,24.97
2023-05-15T11:29:27.353Z,25.23
2023-05-15T11:31:54.195Z,21.37
2023-05-15T11:34:32.683Z,18.60
2023-05-15T11:37:02.712Z,21.33
2023-05-15T11:39:29.511Z,21.80
2023-05-15T11:41:57.103Z,23.37
2023-05-15T11:44:24.491Z,22.93
2023-05-15T11:46:51.599Z,21.80
2023-05-15T11:49:19.512Z,21.07
2023-05-15T11:51:48.389Z,21.00
2023-05-15T11:54:15.259Z,19.33
2023-05-15T11:56:44.555Z,20.53
2023-05-15T11:59:17.211Z,21.30
2023-05-15T12:01:47.376Z,22.27
2023-05-15T12:04:15.589Z,20.37
2023-05-15T12:06:44.502Z,21.40
2023-05-15T12:09:16.628Z,21.90
2023-05-15T12:11:54.288Z,20.93
2023-05-15T12:14:30.503Z,20.57
2023-05-15T12:17:04.464Z,20.70
2023-05-15T12:19:31.476Z,19.53
2023-05-15T12:21:58.001Z,19.20
2023-05-15T12:24:26.517Z,20.13
2023-05-15T12:26:54.418Z,19.60
2023-05-15T12:29:22.621Z,21.23
2023-05-15T12:31:53.843Z,20.70
2023-05-15T12:34:21.378Z,22.73
2023-05-15T12:36:47.873Z,21.20
2023-05-15T12:39:14.382Z,21.10
2023-05-15T12:41:40.927Z,19.43
2023-05-15T12:44:16.441Z,16.97
2023-05-15T12:46:43.280Z,16.37
2023-05-15T12:49:10.717Z,16.80
2023-05-15T12:51:44.165Z,15.37
2023-05-15T12:54:21.016Z,16.73
2023-05-15T12:56:48.242Z,11.57
2023-05-15T12:59:15.118Z,10.37
2023-05-15T13:01:44.638Z,10.97
2023-05-15T13:04:11.573Z,11.70
2023-05-15T13:06:46.282Z,11.33
2023-05-15T13:09:13.847Z,10.60
2023-05-15T13:11:43.974Z,12.40
2023-05-15T13:14:17.616Z,9.70
2023-05-15T13:16:46.640Z,8.67
2023-05-15T13:19:13.901Z,9.07
2023-05-15T13:21:40.895Z,7.10
2023-05-15T13:24:09.921Z,7.83
2023-05-15T13:26:37.548Z,7.60
2023-05-15T13:29:04.116Z,6.87
2023-05-15T13:31:30.729Z,6.60
2023-05-15T13:33:57.776Z,7.17
2023-05-15T13:36:24.264Z,5.80
2023-05-15T13:38:50.860Z,8.37
2023-05-15T13:41:17.867Z,8.23
2023-05-15T13:43:44.657Z,8.33
2023-05-15T13:46:11.157Z,6.67
2023-05-15T13:48:37.706Z,7.73
2023-05-15T13:51:05.209Z,6.90
2023-05-15T13:53:31.808Z,8.13
2023-05-15T13:55:58.413Z,9.83
2023-05-15T13:58:26.683Z,7.07
2023-05-15T14:00:53.775Z,7.30
2023-05-15T14:03:20.715Z,5.80
2023-05-15T14:05:47.345Z,5.73
2023-05-15T14:08:13.900Z,6.30
2023-05-15T14:10:40.884Z,5.60
2023-05-15T14:13:07.638Z,5.03
2023-05-15T14:15:34.139Z,4.57
2023-05-15T14:18:01.037Z,6.13
2023-05-15T14:20:28.107Z,5.27
2023-05-15T14:22:54.726Z,5.03
2023-05-15T14:25:21.484Z,4.63
2023-05-15T14:27:48.059Z,6.27
2023-05-15T14:30:14.661Z,5.33
2023-05-15T14:32:41.464Z,5.47
2023-05-15T14:35:08.047Z,5.57
2023-05-15T14:37:34.914Z,6.20
2023-05-15T14:40:01.882Z,6.20
2023-05-15T14:42:28.405Z,6.13
2023-05-15T14:44:55.060Z,5.77
2023-05-15T14:47:21.976Z,8.33
2023-05-15T14:49:48.510Z,6.60
2023-05-15T14:52:15.056Z,7.60
2023-05-15T14:54:42.170Z,6.70
2023-05-15T14:57:08.797Z,5.97
2023-05-15T14:59:35.338Z,7.17
2023-05-15T15:02:02.425Z,7.53
2023-05-15T15:04:33.964Z,5.87
2023-05-15T15:07:03.511Z,5.97
2023-05-15T15:09:30.630Z,5.67
2023-05-15T15:11:57.101Z,5.87
2023-05-15T15:14:24.182Z,7.20
2023-05-15T15:16:51.586Z,5.50
2023-05-15T15:19:20.172Z,7.00
2023-05-15T15:21:48.043Z,5.33
2023-05-15T15:24:15.259Z,7.13
2023-05-15T15:26:41.881Z,5.70
2023-05-15T15:29:09.385Z,5.20
2023-05-15T15:31:36.635Z,6.10
2023-05-15T15:34:05.336Z,6.97
2023-05-15T15:36:32.553Z,8.53
2023-05-15T15:38:59.364Z,10.43
2023-05-15T15:41:26.058Z,13.87
2023-05-15T15:43:53.758Z,11.50
2023-05-15T15:46:20.783Z,11.70
2023-05-15T15:48:47.369Z,14.03
2023-05-15T15:51:13.855Z,14.00
2023-05-15T15:53:40.368Z,14.57
2023-05-15T15:56:07.624Z,14.30
2023-05-15T15:58:34.327Z,12.90
2023-05-15T16:01:01.200Z,12.00
2023-05-15T16:03:27.947Z,11.90
2023-05-15T16:05:54.550Z,11.63
2023-05-15T16:08:21.124Z,11.00
2023-05-15T16:10:47.677Z,11.83
2023-05-15T16:13:14.395Z,15.17
2023-05-15T16:15:40.857Z,9.60
2023-05-15T16:18:07.705Z,9.17
2023-05-15T16:20:35.253Z,8.53
2023-05-15T16:23:02.002Z,8.20
2023-05-15T16:25:28.500Z,7.60
2023-05-15T16:27:54.978Z,8.97
2023-05-15T16:30:21.793Z,8.10
2023-05-15T16:32:49.051Z,9.03
2023-05-15T16:35:15.786Z,8.33
2023-05-15T16:37:42.605Z,9.07
2023-05-15T16:40:09.782Z,8.10
2023-05-15T16:42:38.052Z,8.80
2023-05-15T16:45:07.971Z,7.67
2023-05-15T16:47:36.591Z,9.60
2023-05-15T16:50:03.551Z,6.80
2023-05-15T16:52:30.084Z,7.03
2023-05-15T16:54:56.674Z,5.83
2023-05-15T16:57:23.221Z,6.60
2023-05-15T16:59:50.156Z,7.20
2023-05-15T17:02:16.726Z,6.27
2023-05-15T17:04:43.243Z,6.13
2023-05-15T17:07:09.777Z,6.43
2023-05-15T17:09:38.298Z,6.30
2023-05-15T17:12:05.500Z,6.50
2023-05-15T17:14:32.325Z,8.30
2023-05-15T17:16:58.789Z,8.83
2023-05-15T17:19:25.437Z,10.10
2023-05-15T17:21:51.947Z,8.63
2023-05-15T17:24:18.974Z,9.90
2023-05-15T17:26:45.473Z,8.60
2023-05-15T17:29:12.026Z,10.13
2023-05-15T17:31:39.164Z,11.53
2023-05-15T17:34:05.641Z,9.27
2023-05-15T17:36:35.123Z,9.50
2023-05-15T17:39:01.603Z,10.13
2023-05-15T17:41:28.765Z,11.47
2023-05-15T17:43:55.285Z,10.10
2023-05-15T17:46:21.801Z,9.93
2023-05-15T17:48:48.315Z,11.77
2023-05-15T17:51:14.761Z,10.43
2023-05-15T17:53:41.225Z,12.70
2023-05-15T17:56:07.764Z,10.67
2023-05-15T17:58:34.314Z,11.33
2023-05-15T18:01:01.273Z,11.67
2023-05-15T18:03:27.950Z,10.93
2023-05-15T18:05:54.761Z,9.20
2023-05-15T18:08:21.326Z,10.07
2023-05-15T18:10:47.836Z,9.93
2023-05-15T18:13:14.465Z,9.83
2023-05-15T18:15:41.011Z,9.43
2023-05-15T18:18:08.169Z,10.80
2023-05-15T18:20:34.881Z,10.53
2023-05-15T18:23:01.724Z,11.17
2023-05-15T18:25:28.329Z,9.17
2023-05-15T18:27:55.058Z,8.40
2023-05-15T18:30:21.562Z,8.73
2023-05-15T18:32:48.089Z,9.83
2023-05-15T18:35:14.612Z,10.47
2023-05-15T18:37:41.072Z,10.60
2023-05-15T18:40:08.241Z,13.03
2023-05-15T18:42:35.116Z,10.63
2023-05-15T18:45:02.152Z,12.17
2023-05-15T18:47:28.662Z,12.30
2023-05-15T18:49:55.248Z,13.63
2023-05-15T18:52:21.812Z,14.53
2023-05-15T18:54:48.543Z,14.17
2023-05-15T18:57:14.997Z,18.30
2023-05-15T18:59:41.734Z,16.17
2023-05-15T19:02:09.660Z,15.17
2023-05-15T19:04:36.367Z,19.67
2023-05-15T19:07:02.861Z,16.73
2023-05-15T19:09:29.387Z,18.07
2023-05-15T19:11:55.983Z,17.10
2023-05-15T19:14:22.530Z,16.83
2023-05-15T19:16:49.228Z,15.97
2023-05-15T19:19:15.924Z,15.03
2023-05-15T19:21:42.465Z,17.30
2023-05-15T19:24:08.899Z,15.63
2023-05-15T19:26:35.374Z,16.57
2023-05-15T19:29:02.070Z,16.10
2023-05-15T19:31:32.012Z,16.53
2023-05-15T19:33:59.685Z,15.93
2023-05-15T19:36:26.313Z,15.93
2023-05-15T19:38:53.395Z,15.90
2023-05-15T19:41:21.578Z,17.10
2023-05-15T19:43:50.578Z,14.23
2023-05-15T19:46:18.336Z,16.80
2023-05-15T19:48:45.088Z,17.40
2023-05-15T19:51:12.095Z,15.27
2023-05-15T19:53:38.592Z,16.57
2023-05-15T19:56:05.638Z,15.40
2023-05-15T19:58:32.248Z,15.33
2023-05-15T20:00:58.998Z,16.60
2023-05-15T20:03:33.010Z,16.17
2023-05-15T20:06:03.147Z,14.57
2023-05-15T20:08:29.715Z,16.00
2023-05-15T20:10:56.914Z,15.73
2023-05-15T20:13:23.661Z,14.33
2023-05-15T20:15:57.792Z,14.10
2023-05-15T20:18:25.155Z,13.10
2023-05-15T20:20:54.486Z,16.40
2023-05-15T20:23:21.285Z,16.43
2023-05-15T20:25:49.770Z,14.87
2023-05-15T20:28:17.698Z,15.13
2023-05-15T20:30:47.143Z,15.63
2023-05-15T20:33:13.804Z,15.43
2023-05-15T20:35:40.371Z,15.83
2023-05-15T20:38:06.871Z,15.37
2023-05-15T20:40:33.617Z,15.90
2023-05-15T20:43:01.203Z,15.30
2023-05-15T20:45:32.340Z,15.87
2023-05-15T20:47:59.085Z,18.10
2023-05-15T20:50:26.155Z,21.73
2023-05-15T20:52:53.165Z,15.97
2023-05-15T20:55:21.446Z,18.30
2023-05-15T20:57:49.019Z,19.00
2023-05-15T21:00:16.703Z,15.63
2023-05-15T21:02:44.146Z,18.33
2023-05-15T21:05:10.934Z,16.90
2023-05-15T21:07:37.857Z,16.20
2023-05-15T21:10:04.829Z,16.77
2023-05-15T21:12:32.700Z,18.23
2023-05-15T21:14:59.151Z,17.00
2023-05-15T21:17:25.584Z,14.80
2023-05-15T21:19:52.374Z,14.80
2023-05-15T21:22:18.866Z,14.17
2023-05-15T21:24:46.241Z,15.57
2023-05-15T21:27:12.717Z,15.50
2023-05-15T21:29:39.191Z,14.87
2023-05-15T21:32:06.439Z,16.00
2023-05-15T21:34:32.901Z,14.43
2023-05-15T21:37:02.013Z,14.10
2023-05-15T21:39:28.505Z,15.63
2023-05-15T21:41:55.076Z,15.13
2023-05-15T21:44:21.613Z,15.77
2023-05-15T21:46:48.921Z,15.97
2023-05-15T21:49:15.544Z,20.40
2023-05-15T21:51:42.015Z,15.80
2023-05-15T21:54:08.470Z,15.63
2023-05-15T21:56:35.990Z,16.20
2023-05-15T21:59:02.541Z,14.83
2023-05-15T22:01:29.510Z,14.67
2023-05-15T22:03:56.369Z,14.07
2023-05-15T22:06:23.136Z,16.47
2023-05-15T22:08:49.638Z,15.97
2023-05-15T22:11:17.095Z,16.33
2023-05-15T22:13:43.630Z,14.87
2023-05-15T22:16:10.278Z,16.13
2023-05-15T22:18:37.772Z,15.47
2023-05-15T22:21:04.312Z,15.53
2023-05-15T22:23:31.455Z,15.83
2023-05-15T22:25:57.918Z,15.43
2023-05-15T22:28:24.631Z,15.83
2023-05-15T22:30:51.140Z,17.70
2023-05-15T22:33:24.320Z,17.53
2023-05-15T22:35:52.697Z,16.33
2023-05-15T22:38:19.513Z,17.00
2023-05-15T22:40:53.081Z,16.47
2023-05-15T22:43:19.854Z,19.13
2023-05-15T22:45:46.341Z,16.53
2023-05-15T22:48:12.826Z,16.17
2023-05-15T22:50:39.372Z,17.17
2023-05-15T22:53:06.253Z,16.27
2023-05-15T22:55:32.801Z,16.77
2023-05-15T22:57:59.559Z,16.30
2023-05-15T23:00:26.333Z,17.30
2023-05-15T23:02:55.239Z,16.53
2023-05-15T23:05:22.411Z,17.13
2023-05-15T23:07:48.986Z,15.90
2023-05-15T23:10:15.514Z,16.60
2023-05-15T23:12:42.503Z,15.77
2023-05-15T23:15:10.415Z,14.23
2023-05-15T23:17:37.036Z,13.83
2023-05-15T23:20:06.780Z,13.20
2023-05-15T23:22:33.382Z,14.03
2023-05-15T23:24:59.829Z,13.63
2023-05-15T23:27:26.386Z,14.67
2023-05-15T23:29:52.929Z,14.77
2023-05-15T23:32:19.431Z,19.10
2023-05-15T23:34:46.387Z,16.30
2023-05-15T23:37:12.863Z,13.93
2023-05-15T23:39:39.408Z,13.67
2023-05-15T23:42:06.243Z,13.23
2023-05-15T23:44:32.760Z,13.40
2023-05-15T23:46:59.291Z,13.10
2023-05-15T23:49:25.897Z,12.40
2023-05-15T23:51:52.447Z,12.83
2023-05-15T23:54:19.008Z,14.27
2023-05-15T23:56:45.491Z,12.33
2023-05-15T23:59:13.741Z,12.00
